Latest Coastal Weather Observations for Point Stuart

IDD60701

Issued at 6:31 pm CST Friday 18 September 2020 (issued every 10 minutes, with the page automatically refreshed every 10 minutes)

About coastal observations | Map of coastal stations | Coastal observations for NT | Marine services | Other Formats
Station Details ID: 014254 Name: POINT STUART Lat: -12.24 Lon: 131.88 Height: 1.0 m
Data from the previous 72 hours. | See also: Recent months at Point Stuart
Date/Time
CST
Wind Sea
Height
m
Swell Vis
km
Cloud Weather Temp
°C
Press
hPa
Rain since
9am
mm
Dir  Spd
kts
Gust
kts
Height
m
Period
s
Dir
18/06:30pm NNW 5 9 - - - - - - - 28.9 1010.0 0.0
18/06:00pm N 7 13 - - - - - - - 30.3 1009.6 0.0
18/05:30pm N 8 14 - - - - - - - 30.9 1009.4 0.0
18/05:00pm N 8 13 - - - - - - - 31.5 1009.3 0.0
18/04:30pm N 7 14 - - - - - - - 31.7 1009.4 0.0
18/04:00pm N 9 15 - - - - - - - 31.9 1009.4 0.0
18/03:30pm N 9 14 - - - - - - - 32.9 1009.7 0.0
18/03:00pm N 7 14 - - - - - - - 32.4 1010.0 0.0
18/02:30pm N 8 14 - - - - - - - 33.1 1010.4 0.0
18/02:00pm N 8 12 - - - - - - - 32.9 1010.8 0.0
18/01:30pm N 8 12 - - - - - - - 32.8 1011.4 0.0
18/01:00pm N 9 14 - - - - - - - 33.1 1012.0 0.0
18/12:30pm N 8 13 - - - - - - - 32.9 1012.7 0.0
18/12:00pm NE 9 13 - - - - - - - 33.5 1013.2 0.0
18/11:30am ENE 8 13 - - - - - - - 32.4 1013.6 0.0
18/11:00am ENE 9 14 - - - - - - - 31.8 1013.9 0.0
18/10:30am ENE 8 13 - - - - - - - 31.8 1014.2 0.0
18/10:00am E 8 11 - - - - - - - 30.5 1014.3 0.0
18/09:30am E 8 13 - - - - - - - 30.0 1014.4 0.0
18/09:00am E 6 9 - - - - - - - 29.5 1014.2 0.0
18/08:30am E 6 9 - - - - - - - 28.7 1014.0 0.0
18/08:00am ESE 5 6 - - - - - - - 27.9 1013.8 0.0
18/07:30am ESE 3 5 - - - - - - - 25.6 1013.6 0.0
18/07:00am CALM 0 0 - - - - - - - 24.2 1013.1 0.0
18/06:30am SSE 1 3 - - - - - - - 23.9 1012.8 0.0
18/06:00am SE 3 3 - - - - - - - 24.2 1012.3 0.0
18/05:30am SSE 3 4 - - - - - - - 24.8 1012.1 0.0
18/05:00am E 2 3 - - - - - - - 24.3 1011.9 0.0
18/04:30am CALM 0 0 - - - - - - - 24.1 1011.8 0.0
18/04:00am CALM 0 0 - - - - - - - 24.0 1011.8 0.0
18/03:30am NNE 2 3 - - - - - - - 23.9 1011.8 0.0
18/03:00am CALM 0 3 - - - - - - - 24.1 1011.9 0.0
18/02:30am NNE 3 4 - - - - - - - 24.4 1012.0 0.0
18/02:00am NE 3 4 - - - - - - - 25.3 1012.1 0.0
18/01:30am NE 3 4 - - - - - - - 24.7 1012.3 0.0
18/01:00am NNE 4 5 - - - - - - - 24.6 1012.3 0.0
18/12:30am NNE 3 4 - - - - - - - 25.2 1012.6 0.0
18/12:00am N 3 4 - - - - - - - 25.7 1012.7 0.0
 
Date/Time
CST
Wind Sea
Height
m
Swell Vis
km
Cloud Weather Temp
°C
Press
hPa
Rain since
9am
mm
Dir  Spd
kts
Gust
kts
Height
m
Period
s
Dir
17/11:30pm NNW 4 6 - - - - - - - 26.1 1012.7 0.0
17/11:00pm N 4 5 - - - - - - - 26.5 1012.7 0.0
17/10:30pm N 4 6 - - - - - - - 26.8 1012.5 0.0
17/10:00pm N 4 7 - - - - - - - 27.1 1012.3 0.0
17/09:30pm N 4 7 - - - - - - - 26.9 1012.1 0.0
17/09:00pm N 5 8 - - - - - - - 26.9 1012.0 0.0
17/08:30pm N 4 7 - - - - - - - 27.1 1011.6 0.0
17/08:00pm N 4 7 - - - - - - - 27.3 1011.3 0.0
17/07:30pm N 5 8 - - - - - - - 27.4 1011.0 0.0
17/07:00pm NNW 6 10 - - - - - - - 27.6 1010.7 0.0
17/06:30pm N 6 8 - - - - - - - 28.8 1010.4 0.0
17/06:00pm NNE 6 10 - - - - - - - 29.7 1009.8 0.0
17/05:30pm N 6 9 - - - - - - - 30.6 1009.6 0.0
17/05:00pm N 8 13 - - - - - - - 31.1 1009.4 0.0
17/04:30pm N 8 12 - - - - - - - 31.8 1009.4 0.0
17/04:00pm NNE 7 11 - - - - - - - 33.4 1009.5 0.0
17/03:30pm NE 10 15 - - - - - - - 33.6 1009.8 0.0
17/03:00pm NE 8 11 - - - - - - - 32.3 1010.5 0.0
17/02:30pm NNE 7 11 - - - - - - - 31.1 1011.0 0.0
17/02:00pm N 8 13 - - - - - - - 31.1 1011.3 0.0
17/01:30pm N 8 12 - - - - - - - 32.5 1011.9 0.0
17/01:00pm NNE 8 12 - - - - - - - 32.1 1012.4 0.0
17/12:30pm NE 7 10 - - - - - - - 30.8 1012.8 0.0
17/12:00pm E 6 11 - - - - - - - 33.0 1013.2 0.0
17/11:30am ENE 7 11 - - - - - - - 31.0 1013.9 0.0
17/11:00am NE 7 11 - - - - - - - 30.5 1014.4 0.0
17/10:30am ENE 8 11 - - - - - - - 29.1 1014.4 0.0
17/10:00am ENE 9 13 - - - - - - - 29.6 1014.3 0.0
17/09:30am ENE 7 10 - - - - - - - 28.9 1014.3 0.0
17/09:00am E 6 8 - - - - - - - 28.4 1014.1 0.0
17/08:30am E 5 8 - - - - - - - 28.0 1013.9 0.0
17/08:00am CALM 0 0 - - - - - - - 25.9 1013.6 0.0
17/07:30am CALM 0 0 - - - - - - - 24.5 1013.3 0.0
17/07:00am CALM 0 0 - - - - - - - 24.1 1013.0 0.0
17/06:30am S 3 5 - - - - - - - 24.1 1012.6 0.0
17/06:00am S 3 4 - - - - - - - 24.1 1012.4 0.0
17/05:30am CALM 0 0 - - - - - - - 24.2 1012.0 0.0
17/05:00am S 2 4 - - - - - - - 24.0 1011.8 0.0
17/04:30am S 4 5 - - - - - - - 24.2 1011.7 0.0
17/04:00am S 4 5 - - - - - - - 24.1 1011.8 0.0
17/03:30am S 4 5 - - - - - - - 24.1 1011.8 0.0
17/03:00am SSE 2 5 - - - - - - - 23.8 1012.0 0.0
17/02:30am CALM 0 0 - - - - - - - 24.3 1012.1 0.0
17/02:00am CALM 0 0 - - - - - - - 24.5 1012.2 0.0
17/01:30am ENE 4 5 - - - - - - - 25.0 1012.7 0.0
17/01:00am ENE 4 5 - - - - - - - 25.6 1013.1 0.0
17/12:30am NE 1 3 - - - - - - - 25.6 1013.2 0.0
17/12:00am NE 6 9 - - - - - - - 25.8 1013.1 0.0
 
Date/Time
CST
Wind Sea
Height
m
Swell Vis
km
Cloud Weather Temp
°C
Press
hPa
Rain since
9am
mm
Dir  Spd
kts
Gust
kts
Height
m
Period
s
Dir
16/11:30pm NNE 6 9 - - - - - - - 26.0 1013.1 0.0
16/11:00pm NNE 7 12 - - - - - - - 26.3 1013.1 0.0
16/10:30pm NNE 6 10 - - - - - - - 26.2 1013.0 0.0
16/10:00pm NNE 6 9 - - - - - - - 26.5 1012.8 0.0
16/09:30pm NNE 7 12 - - - - - - - 26.7 1012.7 0.0
16/09:00pm NNE 7 13 - - - - - - - 26.9 1012.4 0.0
16/08:30pm NNE 8 13 - - - - - - - 27.1 1012.2 0.0
16/08:00pm NNE 8 13 - - - - - - - 27.2 1011.9 0.0
16/07:30pm NNE 9 16 - - - - - - - 27.6 1011.5 0.0
16/07:00pm NNE 9 15 - - - - - - - 27.8 1010.9 0.0
16/06:30pm NNE 9 13 - - - - - - - 28.5 1010.5 0.0
16/06:00pm NNE 8 14 - - - - - - - 29.4 1010.3 0.0
16/05:30pm NNE 9 14 - - - - - - - 29.9 1010.1 0.0
16/05:00pm N 9 16 - - - - - - - 29.8 1010.0 0.0
16/04:30pm N 8 14 - - - - - - - 30.5 1010.0 0.0
16/04:00pm N 10 16 - - - - - - - 30.8 1010.0 0.0
16/03:30pm N 8 14 - - - - - - - 32.0 1010.1 0.0
16/03:00pm N 8 15 - - - - - - - 32.0 1010.4 0.0
16/02:30pm N 7 13 - - - - - - - 33.2 1010.6 0.0
16/02:00pm NNE 9 16 - - - - - - - 33.8 1011.2 0.0
16/01:30pm NNE 9 15 - - - - - - - 33.4 1011.9 0.0
16/01:00pm NE 11 17 - - - - - - - 32.0 1012.4 0.0
16/12:30pm NE 10 18 - - - - - - - 31.8 1012.8 0.0
16/12:00pm NE 8 14 - - - - - - - 32.5 1013.2 0.0
16/11:30am ENE 10 14 - - - - - - - 31.6 1013.7 0.0
16/11:00am E 11 15 - - - - - - - 31.0 1014.1 0.0
16/10:30am ENE 10 15 - - - - - - - 31.4 1014.5 0.0
16/10:00am ENE 9 12 - - - - - - - 29.3 1014.8 0.0
16/09:30am E 9 12 - - - - - - - 28.6 1014.8 0.0
16/09:00am ESE 8 11 - - - - - - - 27.8 1014.7 0.0
16/08:30am E 7 10 - - - - - - - 26.9 1014.4 0.0
16/08:00am E 5 6 - - - - - - - 25.5 1014.2 0.0
16/07:30am CALM 0 0 - - - - - - - 22.8 1013.7 0.0
16/07:00am S 2 3 - - - - - - - 20.6 1013.1 0.0
16/06:30am S 4 4 - - - - - - - 20.6 1013.0 0.0
16/06:00am CALM 0 0 - - - - - - - 21.1 1012.6 0.0
16/05:30am CALM 0 0 - - - - - - - 21.3 1012.2 0.0
16/05:00am S 2 4 - - - - - - - 21.9 1011.9 0.0
16/04:30am CALM 0 0 - - - - - - - 22.1 1011.8 0.0
16/04:00am S 3 4 - - - - - - - 22.5 1011.6 0.0
16/03:30am S 3 4 - - - - - - - 23.0 1011.6 0.0
16/03:00am S 6 6 - - - - - - - 23.9 1011.7 0.0
16/02:30am ESE 5 7 - - - - - - - 25.2 1011.9 0.0
16/02:00am E 7 10 - - - - - - - 26.0 1012.0 0.0
16/01:30am E 10 14 - - - - - - - 26.2 1012.3 0.0
16/01:00am ENE 11 16 - - - - - - - 26.3 1012.6 0.0
16/12:30am ENE 10 16 - - - - - - - 26.3 1012.9 0.0
16/12:00am ENE 13 21 - - - - - - - 26.6 1013.2 0.0
 
Date/Time
CST
Wind Sea
Height
m
Swell Vis
km
Cloud Weather Temp
°C
Press
hPa
Rain since
9am
mm
Dir  Spd
kts
Gust
kts
Height
m
Period
s
Dir
15/11:30pm ENE 12 17 - - - - - - - 26.4 1013.3 0.0
15/11:00pm ENE 11 16 - - - - - - - 26.6 1013.4 0.0
15/10:30pm ENE 12 19 - - - - - - - 26.6 1013.4 0.0
15/10:00pm NE 14 18 - - - - - - - 26.9 1013.2 0.0
15/09:30pm NE 11 16 - - - - - - - 26.9 1012.7 0.0
15/09:00pm NE 12 17 - - - - - - - 27.0 1012.4 0.0
15/08:30pm NNE 10 16 - - - - - - - 27.2 1012.0 0.0
15/08:00pm NE 10 16 - - - - - - - 27.4 1011.6 0.0
15/07:30pm NNE 9 13 - - - - - - - 27.6 1011.1 0.0
15/07:00pm NNE 8 12 - - - - - - - 27.9 1010.7 0.0

Other formats

Comma delimited format used in spreadsheet applications
http://www.bom.gov.au/fwo/IDD60701/IDD60701.94127.axf

JavaScript Object Notation format (JSON) in row-major order
http://www.bom.gov.au/fwo/IDD60701/IDD60701.94127.json

Data quality

Most of these data are generated automatically and are frequently updated. Quality checks on data are not normally performed. It is possible for incorrect values to appear. Refer to information at About Latest Weather Observations and please check the disclaimer before using these data.